sensor_id;sensor_type;location;lat;lon;timestamp;temperature;humidity
20915;DHT22;10617;52.032;5.298;2023-03-01T00:02:43;0.60;55.70
20915;DHT22;10617;52.032;5.298;2023-03-01T00:06:44;0.50;55.80
20915;DHT22;10617;52.032;5.298;2023-03-01T00:10:49;0.40;56.20
20915;DHT22;10617;52.032;5.298;2023-03-01T00:14:51;0.30;56.10
20915;DHT22;10617;52.032;5.298;2023-03-01T00:18:53;0.30;56.00
20915;DHT22;10617;52.032;5.298;2023-03-01T00:22:55;0.30;56.10
20915;DHT22;10617;52.032;5.298;2023-03-01T00:26:57;0.20;56.00
20915;DHT22;10617;52.032;5.298;2023-03-01T00:31:03;0.10;56.20
20915;DHT22;10617;52.032;5.298;2023-03-01T00:35:04;0.10;56.70
20915;DHT22;10617;52.032;5.298;2023-03-01T00:39:09;0.00;56.60
20915;DHT22;10617;52.032;5.298;2023-03-01T00:43:11;0.00;56.30
20915;DHT22;10617;52.032;5.298;2023-03-01T00:47:13;-0.10;56.60
20915;DHT22;10617;52.032;5.298;2023-03-01T00:51:19;-0.10;57.20
20915;DHT22;10617;52.032;5.298;2023-03-01T00:55:21;-0.20;56.60
20915;DHT22;10617;52.032;5.298;2023-03-01T00:59:23;-0.20;56.80
20915;DHT22;10617;52.032;5.298;2023-03-01T01:03:24;-0.20;56.60
20915;DHT22;10617;52.032;5.298;2023-03-01T01:12:29;-0.30;56.80
20915;DHT22;10617;52.032;5.298;2023-03-01T01:16:31;-0.40;57.90
20915;DHT22;10617;52.032;5.298;2023-03-01T01:20:35;-0.40;57.20
20915;DHT22;10617;52.032;5.298;2023-03-01T01:24:36;-0.50;56.80
20915;DHT22;10617;52.032;5.298;2023-03-01T01:28:38;-0.50;57.20
20915;DHT22;10617;52.032;5.298;2023-03-01T01:32:40;-0.50;56.60
20915;DHT22;10617;52.032;5.298;2023-03-01T01:36:41;-0.60;56.70
20915;DHT22;10617;52.032;5.298;2023-03-01T01:40:44;-0.60;56.80
20915;DHT22;10617;52.032;5.298;2023-03-01T01:44:46;-0.60;57.30
20915;DHT22;10617;52.032;5.298;2023-03-01T01:48:48;-0.70;56.90
20915;DHT22;10617;52.032;5.298;2023-03-01T01:52:51;-0.80;56.80
20915;DHT22;10617;52.032;5.298;2023-03-01T01:56:58;-0.90;56.80
20915;DHT22;10617;52.032;5.298;2023-03-01T02:01:01;-1.00;57.40
20915;DHT22;10617;52.032;5.298;2023-03-01T02:09:25;-1.10;57.40
20915;DHT22;10617;52.032;5.298;2023-03-01T02:13:26;-1.10;57.40
20915;DHT22;10617;52.032;5.298;2023-03-01T02:32:40;-1.10;57.50
20915;DHT22;10617;52.032;5.298;2023-03-01T02:36:49;-1.10;57.60
20915;DHT22;10617;52.032;5.298;2023-03-01T02:40:52;-1.10;57.90
20915;DHT22;10617;52.032;5.298;2023-03-01T02:44:55;-1.10;58.80
20915;DHT22;10617;52.032;5.298;2023-03-01T02:48:57;-1.10;58.60
20915;DHT22;10617;52.032;5.298;2023-03-01T02:57:03;-1.10;58.20
20915;DHT22;10617;52.032;5.298;2023-03-01T03:01:05;-1.20;57.60
20915;DHT22;10617;52.032;5.298;2023-03-01T03:09:09;-1.20;58.10
20915;DHT22;10617;52.032;5.298;2023-03-01T03:13:12;-1.30;57.60
20915;DHT22;10617;52.032;5.298;2023-03-01T03:17:14;-1.30;58.00
20915;DHT22;10617;52.032;5.298;2023-03-01T03:21:16;-1.30;58.90
20915;DHT22;10617;52.032;5.298;2023-03-01T03:25:18;-1.40;58.80
20915;DHT22;10617;52.032;5.298;2023-03-01T03:29:20;-1.50;59.70
20915;DHT22;10617;52.032;5.298;2023-03-01T03:33:21;-1.50;58.50
20915;DHT22;10617;52.032;5.298;2023-03-01T03:37:23;-1.50;58.40
20915;DHT22;10617;52.032;5.298;2023-03-01T03:41:43;-1.60;58.30
20915;DHT22;10617;52.032;5.298;2023-03-01T03:45:45;-1.60;57.80
20915;DHT22;10617;52.032;5.298;2023-03-01T03:49:47;-1.60;58.80
20915;DHT22;10617;52.032;5.298;2023-03-01T03:53:49;-1.70;58.30
20915;DHT22;10617;52.032;5.298;2023-03-01T03:57:50;-1.60;59.60
20915;DHT22;10617;52.032;5.298;2023-03-01T04:01:53;-1.70;59.20
20915;DHT22;10617;52.032;5.298;2023-03-01T04:05:56;-1.70;58.60
20915;DHT22;10617;52.032;5.298;2023-03-01T04:25:08;-1.80;59.30
20915;DHT22;10617;52.032;5.298;2023-03-01T04:29:10;-1.70;60.30
20915;DHT22;10617;52.032;5.298;2023-03-01T04:33:12;-1.70;60.60
20915;DHT22;10617;52.032;5.298;2023-03-01T04:37:13;-1.80;61.00
20915;DHT22;10617;52.032;5.298;2023-03-01T04:41:17;-1.80;60.30
20915;DHT22;10617;52.032;5.298;2023-03-01T04:45:20;-1.90;60.00
20915;DHT22;10617;52.032;5.298;2023-03-01T04:49:21;-1.90;60.20
20915;DHT22;10617;52.032;5.298;2023-03-01T04:53:23;-1.90;60.80
20915;DHT22;10617;52.032;5.298;2023-03-01T04:57:26;-1.90;60.70
20915;DHT22;10617;52.032;5.298;2023-03-01T05:01:27;-1.90;60.00
20915;DHT22;10617;52.032;5.298;2023-03-01T05:05:33;-1.90;60.90
20915;DHT22;10617;52.032;5.298;2023-03-01T05:09:35;-2.00;60.70
20915;DHT22;10617;52.032;5.298;2023-03-01T05:13:37;-2.00;59.70
20915;DHT22;10617;52.032;5.298;2023-03-01T05:22:43;-2.10;59.60
20915;DHT22;10617;52.032;5.298;2023-03-01T05:26:44;-2.00;60.00
20915;DHT22;10617;52.032;5.298;2023-03-01T05:30:46;-2.00;59.20
20915;DHT22;10617;52.032;5.298;2023-03-01T05:34:47;-2.10;59.30
20915;DHT22;10617;52.032;5.298;2023-03-01T05:38:49;-2.10;60.30
20915;DHT22;10617;52.032;5.298;2023-03-01T05:42:54;-2.10;59.50
20915;DHT22;10617;52.032;5.298;2023-03-01T05:46:56;-2.20;60.10
20915;DHT22;10617;52.032;5.298;2023-03-01T05:50:59;-2.20;60.10
20915;DHT22;10617;52.032;5.298;2023-03-01T05:55:01;-2.20;60.00
20915;DHT22;10617;52.032;5.298;2023-03-01T05:59:03;-2.30;59.90
20915;DHT22;10617;52.032;5.298;2023-03-01T06:03:06;-2.30;60.60
20915;DHT22;10617;52.032;5.298;2023-03-01T06:07:08;-2.30;61.20
20915;DHT22;10617;52.032;5.298;2023-03-01T06:11:09;-2.40;61.90
20915;DHT22;10617;52.032;5.298;2023-03-01T06:15:11;-2.40;61.60
20915;DHT22;10617;52.032;5.298;2023-03-01T06:19:14;-2.40;62.00
20915;DHT22;10617;52.032;5.298;2023-03-01T06:23:15;-2.30;63.30
20915;DHT22;10617;52.032;5.298;2023-03-01T06:27:17;-2.30;62.10
20915;DHT22;10617;52.032;5.298;2023-03-01T06:31:18;-2.30;61.10
20915;DHT22;10617;52.032;5.298;2023-03-01T06:35:20;-2.30;62.70
20915;DHT22;10617;52.032;5.298;2023-03-01T06:39:22;-2.30;62.90
20915;DHT22;10617;52.032;5.298;2023-03-01T06:43:23;-2.30;61.80
20915;DHT22;10617;52.032;5.298;2023-03-01T06:47:25;-2.20;61.80
20915;DHT22;10617;52.032;5.298;2023-03-01T06:51:26;-2.10;61.80
20915;DHT22;10617;52.032;5.298;2023-03-01T06:55:28;-2.10;62.10
20915;DHT22;10617;52.032;5.298;2023-03-01T06:59:30;-2.00;63.80
20915;DHT22;10617;52.032;5.298;2023-03-01T07:03:32;-1.90;64.70
20915;DHT22;10617;52.032;5.298;2023-03-01T07:07:34;-1.80;64.60
20915;DHT22;10617;52.032;5.298;2023-03-01T07:11:35;-1.70;64.80
20915;DHT22;10617;52.032;5.298;2023-03-01T07:15:37;-1.50;64.80
20915;DHT22;10617;52.032;5.298;2023-03-01T07:19:41;-1.40;64.80
20915;DHT22;10617;52.032;5.298;2023-03-01T07:23:43;-1.20;64.80
20915;DHT22;10617;52.032;5.298;2023-03-01T07:27:48;-1.00;65.30
20915;DHT22;10617;52.032;5.298;2023-03-01T07:36:54;-0.70;65.40
20915;DHT22;10617;52.032;5.298;2023-03-01T07:40:59;-0.50;66.30
20915;DHT22;10617;52.032;5.298;2023-03-01T07:45:01;-0.30;66.90
20915;DHT22;10617;52.032;5.298;2023-03-01T07:49:03;-0.10;68.00
20915;DHT22;10617;52.032;5.298;2023-03-01T07:53:05;0.00;68.10
20915;DHT22;10617;52.032;5.298;2023-03-01T07:57:07;0.20;68.40
20915;DHT22;10617;52.032;5.298;2023-03-01T08:01:10;0.40;68.10
20915;DHT22;10617;52.032;5.298;2023-03-01T08:10:09;0.80;70.10
20915;DHT22;10617;52.032;5.298;2023-03-01T08:14:11;1.00;70.60
20915;DHT22;10617;52.032;5.298;2023-03-01T08:18:13;1.20;69.90
20915;DHT22;10617;52.032;5.298;2023-03-01T08:22:14;1.40;71.90
20915;DHT22;10617;52.032;5.298;2023-03-01T08:26:17;1.60;71.00
20915;DHT22;10617;52.032;5.298;2023-03-01T08:30:20;1.80;71.40
20915;DHT22;10617;52.032;5.298;2023-03-01T08:34:21;2.00;72.40
20915;DHT22;10617;52.032;5.298;2023-03-01T08:38:23;2.20;72.00
20915;DHT22;10617;52.032;5.298;2023-03-01T08:42:25;2.40;75.20
20915;DHT22;10617;52.032;5.298;2023-03-01T08:50:28;2.80;72.40
20915;DHT22;10617;52.032;5.298;2023-03-01T08:54:30;2.90;73.40
20915;DHT22;10617;52.032;5.298;2023-03-01T08:58:32;3.10;72.20
20915;DHT22;10617;52.032;5.298;2023-03-01T09:02:33;3.30;74.10
20915;DHT22;10617;52.032;5.298;2023-03-01T09:06:35;3.50;75.30
20915;DHT22;10617;52.032;5.298;2023-03-01T09:10:37;3.70;75.10
20915;DHT22;10617;52.032;5.298;2023-03-01T09:14:39;3.90;74.90
20915;DHT22;10617;52.032;5.298;2023-03-01T09:18:42;4.10;76.60
20915;DHT22;10617;52.032;5.298;2023-03-01T09:22:45;4.20;74.60
20915;DHT22;10617;52.032;5.298;2023-03-01T09:26:46;4.30;73.90
20915;DHT22;10617;52.032;5.298;2023-03-01T09:30:51;4.40;73.30
20915;DHT22;10617;52.032;5.298;2023-03-01T09:34:52;4.50;74.20
20915;DHT22;10617;52.032;5.298;2023-03-01T09:39:06;4.70;75.20
20915;DHT22;10617;52.032;5.298;2023-03-01T09:47:29;5.00;74.60
20915;DHT22;10617;52.032;5.298;2023-03-01T09:51:31;5.20;75.20
20915;DHT22;10617;52.032;5.298;2023-03-01T09:55:37;5.50;76.60
20915;DHT22;10617;52.032;5.298;2023-03-01T10:03:54;6.20;78.40
20915;DHT22;10617;52.032;5.298;2023-03-01T10:22:16;7.80;90.20
20915;DHT22;10617;52.032;5.298;2023-03-01T10:26:25;8.10;92.10
20915;DHT22;10617;52.032;5.298;2023-03-01T10:30:35;8.40;93.30
20915;DHT22;10617;52.032;5.298;2023-03-01T10:34:40;8.50;92.80
20915;DHT22;10617;52.032;5.298;2023-03-01T10:38:50;8.70;92.40
20915;DHT22;10617;52.032;5.298;2023-03-01T10:42:53;9.20;94.60
20915;DHT22;10617;52.032;5.298;2023-03-01T10:47:00;9.70;96.60
20915;DHT22;10617;52.032;5.298;2023-03-01T10:59:33;11.00;99.90
20915;DHT22;10617;52.032;5.298;2023-03-01T11:03:36;11.60;99.90
20915;DHT22;10617;52.032;5.298;2023-03-01T11:07:51;12.10;99.90
20915;DHT22;10617;52.032;5.298;2023-03-01T11:11:55;12.50;99.90
20915;DHT22;10617;52.032;5.298;2023-03-01T11:16:00;12.80;99.90
20915;DHT22;10617;52.032;5.298;2023-03-01T11:24:14;13.30;99.90
20915;DHT22;10617;52.032;5.298;2023-03-01T11:28:17;13.60;99.90
20915;DHT22;10617;52.032;5.298;2023-03-01T11:32:19;14.00;99.90
20915;DHT22;10617;52.032;5.298;2023-03-01T11:36:28;14.40;99.90
20915;DHT22;10617;52.032;5.298;2023-03-01T11:40:35;14.70;99.90
20915;DHT22;10617;52.032;5.298;2023-03-01T11:44:38;14.90;99.90
20915;DHT22;10617;52.032;5.298;2023-03-01T11:48:45;15.00;99.90
20915;DHT22;10617;52.032;5.298;2023-03-01T12:05:12;15.20;99.90
20915;DHT22;10617;52.032;5.298;2023-03-01T12:09:27;15.40;99.90
20915;DHT22;10617;52.032;5.298;2023-03-01T12:13:41;16.00;99.90
20915;DHT22;10617;52.032;5.298;2023-03-01T12:22:26;16.70;99.90
20915;DHT22;10617;52.032;5.298;2023-03-01T12:26:34;16.80;94.80
20915;DHT22;10617;52.032;5.298;2023-03-01T12:47:23;17.40;97.20
20915;DHT22;10617;52.032;5.298;2023-03-01T12:51:28;17.20;97.70
20915;DHT22;10617;52.032;5.298;2023-03-01T12:55:32;16.60;95.40
20915;DHT22;10617;52.032;5.298;2023-03-01T12:59:37;16.40;92.60
20915;DHT22;10617;52.032;5.298;2023-03-01T13:08:08;16.80;91.60
20915;DHT22;10617;52.032;5.298;2023-03-01T13:24:44;14.80;83.20
20915;DHT22;10617;52.032;5.298;2023-03-01T13:28:56;14.30;75.40
20915;DHT22;10617;52.032;5.298;2023-03-01T13:37:27;13.30;69.30
20915;DHT22;10617;52.032;5.298;2023-03-01T13:45:51;12.90;64.10
20915;DHT22;10617;52.032;5.298;2023-03-01T13:49:55;12.70;63.50
20915;DHT22;10617;52.032;5.298;2023-03-01T13:53:58;12.60;62.30
20915;DHT22;10617;52.032;5.298;2023-03-01T13:58:01;12.60;61.70
20915;DHT22;10617;52.032;5.298;2023-03-01T14:02:10;12.50;60.80
20915;DHT22;10617;52.032;5.298;2023-03-01T14:06:14;12.40;60.70
20915;DHT22;10617;52.032;5.298;2023-03-01T14:10:20;12.50;60.20
20915;DHT22;10617;52.032;5.298;2023-03-01T14:18:45;12.60;59.30
20915;DHT22;10617;52.032;5.298;2023-03-01T14:22:49;12.50;59.30
20915;DHT22;10617;52.032;5.298;2023-03-01T14:26:53;12.40;59.30
20915;DHT22;10617;52.032;5.298;2023-03-01T14:30:56;12.40;59.00
20915;DHT22;10617;52.032;5.298;2023-03-01T14:34:58;12.50;59.20
20915;DHT22;10617;52.032;5.298;2023-03-01T14:39:00;12.80;60.10
20915;DHT22;10617;52.032;5.298;2023-03-01T14:43:10;13.90;62.60
20915;DHT22;10617;52.032;5.298;2023-03-01T14:47:19;15.20;64.00
20915;DHT22;10617;52.032;5.298;2023-03-01T14:51:24;16.20;68.30
20915;DHT22;10617;52.032;5.298;2023-03-01T14:59:32;18.20;73.70
20915;DHT22;10617;52.032;5.298;2023-03-01T15:03:35;18.70;76.60
20915;DHT22;10617;52.032;5.298;2023-03-01T15:07:39;19.30;78.60
20915;DHT22;10617;52.032;5.298;2023-03-01T15:11:41;19.80;76.20
20915;DHT22;10617;52.032;5.298;2023-03-01T15:15:45;19.70;74.20
20915;DHT22;10617;52.032;5.298;2023-03-01T15:19:50;19.30;72.00
20915;DHT22;10617;52.032;5.298;2023-03-01T15:23:54;19.00;72.30
20915;DHT22;10617;52.032;5.298;2023-03-01T15:27:56;18.70;68.80
20915;DHT22;10617;52.032;5.298;2023-03-01T15:32:03;18.50;69.50
20915;DHT22;10617;52.032;5.298;2023-03-01T15:36:29;18.50;67.00
20915;DHT22;10617;52.032;5.298;2023-03-01T15:40:28;18.00;64.50
20915;DHT22;10617;52.032;5.298;2023-03-01T15:44:40;17.40;63.60
20915;DHT22;10617;52.032;5.298;2023-03-01T15:48:45;16.90;60.40
20915;DHT22;10617;52.032;5.298;2023-03-01T15:52:47;16.50;61.60
20915;DHT22;10617;52.032;5.298;2023-03-01T15:56:49;16.50;61.60
20915;DHT22;10617;52.032;5.298;2023-03-01T16:00:52;16.50;61.00
20915;DHT22;10617;52.032;5.298;2023-03-01T16:05:02;16.40;60.10
20915;DHT22;10617;52.032;5.298;2023-03-01T16:09:05;16.10;58.60
20915;DHT22;10617;52.032;5.298;2023-03-01T16:13:07;15.80;57.80
20915;DHT22;10617;52.032;5.298;2023-03-01T16:17:09;15.80;58.30
20915;DHT22;10617;52.032;5.298;2023-03-01T16:21:22;15.90;57.90
20915;DHT22;10617;52.032;5.298;2023-03-01T16:25:23;15.40;55.70
20915;DHT22;10617;52.032;5.298;2023-03-01T16:29:25;14.70;54.60
20915;DHT22;10617;52.032;5.298;2023-03-01T16:33:27;14.20;54.30
20915;DHT22;10617;52.032;5.298;2023-03-01T16:37:34;13.80;53.30
20915;DHT22;10617;52.032;5.298;2023-03-01T16:41:36;13.40;53.10
20915;DHT22;10617;52.032;5.298;2023-03-01T16:45:38;13.00;52.60
20915;DHT22;10617;52.032;5.298;2023-03-01T16:49:41;12.70;52.20
20915;DHT22;10617;52.032;5.298;2023-03-01T16:53:43;12.30;51.60
20915;DHT22;10617;52.032;5.298;2023-03-01T16:57:47;12.00;51.10
20915;DHT22;10617;52.032;5.298;2023-03-01T17:01:49;11.70;50.80
20915;DHT22;10617;52.032;5.298;2023-03-01T17:05:50;11.40;50.30
20915;DHT22;10617;52.032;5.298;2023-03-01T17:09:52;11.00;49.90
20915;DHT22;10617;52.032;5.298;2023-03-01T17:13:54;10.60;49.70
20915;DHT22;10617;52.032;5.298;2023-03-01T17:17:55;10.30;49.50
20915;DHT22;10617;52.032;5.298;2023-03-01T17:21:57;10.20;49.40
20915;DHT22;10617;52.032;5.298;2023-03-01T17:25:58;10.10;49.20
20915;DHT22;10617;52.032;5.298;2023-03-01T17:30:00;10.00;48.90
20915;DHT22;10617;52.032;5.298;2023-03-01T17:34:02;9.80;49.30
20915;DHT22;10617;52.032;5.298;2023-03-01T17:48:10;9.30;48.80
20915;DHT22;10617;52.032;5.298;2023-03-01T17:52:12;9.10;48.70
20915;DHT22;10617;52.032;5.298;2023-03-01T17:56:13;9.00;48.70
20915;DHT22;10617;52.032;5.298;2023-03-01T18:00:16;8.80;49.10
20915;DHT22;10617;52.032;5.298;2023-03-01T18:04:18;8.60;48.70
20915;DHT22;10617;52.032;5.298;2023-03-01T18:08:20;8.50;48.80
20915;DHT22;10617;52.032;5.298;2023-03-01T18:12:22;8.40;48.50
20915;DHT22;10617;52.032;5.298;2023-03-01T18:16:23;8.30;48.60
20915;DHT22;10617;52.032;5.298;2023-03-01T18:20:25;8.30;48.80
20915;DHT22;10617;52.032;5.298;2023-03-01T18:24:27;8.10;48.20
20915;DHT22;10617;52.032;5.298;2023-03-01T18:28:30;8.00;48.80
20915;DHT22;10617;52.032;5.298;2023-03-01T18:32:31;7.90;48.10
20915;DHT22;10617;52.032;5.298;2023-03-01T18:36:34;7.80;48.10
20915;DHT22;10617;52.032;5.298;2023-03-01T18:40:36;7.70;48.20
20915;DHT22;10617;52.032;5.298;2023-03-01T18:44:38;7.50;48.00
20915;DHT22;10617;52.032;5.298;2023-03-01T18:48:39;7.40;48.10
20915;DHT22;10617;52.032;5.298;2023-03-01T18:52:41;7.30;48.10
20915;DHT22;10617;52.032;5.298;2023-03-01T18:56:43;7.20;48.00
20915;DHT22;10617;52.032;5.298;2023-03-01T19:00:45;7.20;48.40
20915;DHT22;10617;52.032;5.298;2023-03-01T19:04:48;7.00;48.30
20915;DHT22;10617;52.032;5.298;2023-03-01T19:08:51;6.90;48.00
20915;DHT22;10617;52.032;5.298;2023-03-01T19:12:52;6.90;48.00
20915;DHT22;10617;52.032;5.298;2023-03-01T19:16:54;6.80;47.90
20915;DHT22;10617;52.032;5.298;2023-03-01T19:21:00;6.60;47.80
20915;DHT22;10617;52.032;5.298;2023-03-01T19:25:04;6.50;48.40
20915;DHT22;10617;52.032;5.298;2023-03-01T19:29:06;6.30;47.60
20915;DHT22;10617;52.032;5.298;2023-03-01T19:33:08;6.20;47.40
20915;DHT22;10617;52.032;5.298;2023-03-01T19:37:11;6.20;47.70
20915;DHT22;10617;52.032;5.298;2023-03-01T19:41:16;6.10;47.50
20915;DHT22;10617;52.032;5.298;2023-03-01T19:45:18;6.00;47.70
20915;DHT22;10617;52.032;5.298;2023-03-01T19:49:28;5.90;47.50
20915;DHT22;10617;52.032;5.298;2023-03-01T19:53:30;5.80;47.90
20915;DHT22;10617;52.032;5.298;2023-03-01T19:57:32;5.70;47.90
20915;DHT22;10617;52.032;5.298;2023-03-01T20:01:33;5.60;47.90
20915;DHT22;10617;52.032;5.298;2023-03-01T20:10:05;5.50;48.00
20915;DHT22;10617;52.032;5.298;2023-03-01T20:14:07;5.50;48.20
20915;DHT22;10617;52.032;5.298;2023-03-01T20:18:11;5.50;48.10
20915;DHT22;10617;52.032;5.298;2023-03-01T20:22:14;5.40;47.70
20915;DHT22;10617;52.032;5.298;2023-03-01T20:26:15;5.20;47.50
20915;DHT22;10617;52.032;5.298;2023-03-01T20:30:20;5.10;47.70
20915;DHT22;10617;52.032;5.298;2023-03-01T20:34:21;5.00;47.80
20915;DHT22;10617;52.032;5.298;2023-03-01T20:38:23;4.90;47.90
20915;DHT22;10617;52.032;5.298;2023-03-01T20:42:26;4.90;48.10
20915;DHT22;10617;52.032;5.298;2023-03-01T20:46:28;4.80;48.10
20915;DHT22;10617;52.032;5.298;2023-03-01T20:50:33;4.80;48.00
20915;DHT22;10617;52.032;5.298;2023-03-01T20:54:34;4.70;48.90
20915;DHT22;10617;52.032;5.298;2023-03-01T20:58:36;4.70;48.80
20915;DHT22;10617;52.032;5.298;2023-03-01T21:02:38;4.70;48.80
20915;DHT22;10617;52.032;5.298;2023-03-01T21:06:40;4.60;48.40
20915;DHT22;10617;52.032;5.298;2023-03-01T21:10:48;4.50;48.80
20915;DHT22;10617;52.032;5.298;2023-03-01T21:14:49;4.50;49.00
20915;DHT22;10617;52.032;5.298;2023-03-01T21:18:51;4.50;50.70
20915;DHT22;10617;52.032;5.298;2023-03-01T21:22:52;4.40;50.00
20915;DHT22;10617;52.032;5.298;2023-03-01T21:26:54;4.30;49.60
20915;DHT22;10617;52.032;5.298;2023-03-01T21:30:56;4.20;49.60
20915;DHT22;10617;52.032;5.298;2023-03-01T21:34:57;4.30;49.90
20915;DHT22;10617;52.032;5.298;2023-03-01T21:38:59;4.20;49.70
20915;DHT22;10617;52.032;5.298;2023-03-01T21:43:05;4.20;49.90
20915;DHT22;10617;52.032;5.298;2023-03-01T21:47:07;4.10;50.00
20915;DHT22;10617;52.032;5.298;2023-03-01T21:51:11;4.10;49.50
20915;DHT22;10617;52.032;5.298;2023-03-01T21:55:13;4.10;49.60
20915;DHT22;10617;52.032;5.298;2023-03-01T21:59:16;4.10;49.20
20915;DHT22;10617;52.032;5.298;2023-03-01T22:03:18;4.00;49.30
20915;DHT22;10617;52.032;5.298;2023-03-01T22:07:20;4.00;49.00
20915;DHT22;10617;52.032;5.298;2023-03-01T22:11:22;3.90;49.20
20915;DHT22;10617;52.032;5.298;2023-03-01T22:25:31;3.70;50.50
20915;DHT22;10617;52.032;5.298;2023-03-01T22:29:33;3.60;49.30
20915;DHT22;10617;52.032;5.298;2023-03-01T22:33:35;3.50;49.00
20915;DHT22;10617;52.032;5.298;2023-03-01T22:37:37;3.40;49.60
20915;DHT22;10617;52.032;5.298;2023-03-01T22:41:39;3.40;50.00
20915;DHT22;10617;52.032;5.298;2023-03-01T22:45:43;3.30;50.00
20915;DHT22;10617;52.032;5.298;2023-03-01T22:49:45;3.30;51.30
20915;DHT22;10617;52.032;5.298;2023-03-01T22:53:47;3.30;51.30
20915;DHT22;10617;52.032;5.298;2023-03-01T22:57:49;3.20;50.40
20915;DHT22;10617;52.032;5.298;2023-03-01T23:06:54;3.20;50.00
20915;DHT22;10617;52.032;5.298;2023-03-01T23:21:09;3.00;51.20
20915;DHT22;10617;52.032;5.298;2023-03-01T23:25:11;2.90;50.70
20915;DHT22;10617;52.032;5.298;2023-03-01T23:29:13;2.90;51.60
20915;DHT22;10617;52.032;5.298;2023-03-01T23:33:15;2.90;51.20
20915;DHT22;10617;52.032;5.298;2023-03-01T23:37:16;2.80;52.80
20915;DHT22;10617;52.032;5.298;2023-03-01T23:46:16;2.70;54.70
20915;DHT22;10617;52.032;5.298;2023-03-01T23:50:18;2.70;52.90
20915;DHT22;10617;52.032;5.298;2023-03-01T23:54:21;2.70;53.60
20915;DHT22;10617;52.032;5.298;2023-03-01T23:58:23;2.70;53.60
